sensor_id;sensor_type;location;lat;lon;timestamp;temperature;humidity
16263;DHT22;8239;48.594;8.598;2023-05-20T00:00:12;8.40;99.90
16263;DHT22;8239;48.594;8.598;2023-05-20T00:02:39;8.40;99.90
16263;DHT22;8239;48.594;8.598;2023-05-20T00:05:07;8.50;99.90
16263;DHT22;8239;48.594;8.598;2023-05-20T00:07:34;8.40;99.90
16263;DHT22;8239;48.594;8.598;2023-05-20T00:10:02;8.50;99.90
16263;DHT22;8239;48.594;8.598;2023-05-20T00:12:29;8.50;99.90
16263;DHT22;8239;48.594;8.598;2023-05-20T00:14:56;8.50;99.90
16263;DHT22;8239;48.594;8.598;2023-05-20T00:17:23;8.50;99.90
16263;DHT22;8239;48.594;8.598;2023-05-20T00:19:52;8.50;99.90
16263;DHT22;8239;48.594;8.598;2023-05-20T00:22:19;8.50;99.90
16263;DHT22;8239;48.594;8.598;2023-05-20T00:24:46;8.50;99.90
16263;DHT22;8239;48.594;8.598;2023-05-20T00:27:15;8.60;99.90
16263;DHT22;8239;48.594;8.598;2023-05-20T00:29:42;8.60;99.90
16263;DHT22;8239;48.594;8.598;2023-05-20T00:32:09;8.70;99.90
16263;DHT22;8239;48.594;8.598;2023-05-20T00:34:36;8.70;99.90
16263;DHT22;8239;48.594;8.598;2023-05-20T00:37:03;8.80;99.90
16263;DHT22;8239;48.594;8.598;2023-05-20T00:39:30;8.80;99.90
16263;DHT22;8239;48.594;8.598;2023-05-20T00:41:57;8.80;99.90
16263;DHT22;8239;48.594;8.598;2023-05-20T00:44:28;8.80;99.90
16263;DHT22;8239;48.594;8.598;2023-05-20T00:46:55;8.80;99.90
16263;DHT22;8239;48.594;8.598;2023-05-20T00:49:22;8.90;99.90
16263;DHT22;8239;48.594;8.598;2023-05-20T00:51:49;9.00;99.90
16263;DHT22;8239;48.594;8.598;2023-05-20T00:54:16;9.10;99.90
16263;DHT22;8239;48.594;8.598;2023-05-20T00:56:43;9.20;99.90
16263;DHT22;8239;48.594;8.598;2023-05-20T00:59:11;9.40;99.90
16263;DHT22;8239;48.594;8.598;2023-05-20T01:01:39;9.50;99.90
16263;DHT22;8239;48.594;8.598;2023-05-20T01:04:07;9.60;99.90
16263;DHT22;8239;48.594;8.598;2023-05-20T01:06:34;9.70;99.90
16263;DHT22;8239;48.594;8.598;2023-05-20T01:09:02;9.80;99.90
16263;DHT22;8239;48.594;8.598;2023-05-20T01:11:33;9.90;99.90
16263;DHT22;8239;48.594;8.598;2023-05-20T01:14:04;10.00;99.90
16263;DHT22;8239;48.594;8.598;2023-05-20T01:16:34;10.20;99.90
16263;DHT22;8239;48.594;8.598;2023-05-20T01:19:10;10.20;99.90
16263;DHT22;8239;48.594;8.598;2023-05-20T01:21:46;10.30;99.90
16263;DHT22;8239;48.594;8.598;2023-05-20T01:24:15;10.40;99.90
16263;DHT22;8239;48.594;8.598;2023-05-20T01:26:42;10.50;99.90
16263;DHT22;8239;48.594;8.598;2023-05-20T01:29:13;10.50;99.90
16263;DHT22;8239;48.594;8.598;2023-05-20T01:31:43;10.60;99.90
16263;DHT22;8239;48.594;8.598;2023-05-20T01:34:11;10.60;99.90
16263;DHT22;8239;48.594;8.598;2023-05-20T01:36:39;10.70;99.90
16263;DHT22;8239;48.594;8.598;2023-05-20T01:39:06;10.70;99.90
16263;DHT22;8239;48.594;8.598;2023-05-20T01:41:36;10.70;99.90
16263;DHT22;8239;48.594;8.598;2023-05-20T01:44:03;10.70;99.90
16263;DHT22;8239;48.594;8.598;2023-05-20T01:46:32;10.70;99.90
16263;DHT22;8239;48.594;8.598;2023-05-20T01:48:59;10.80;99.90
16263;DHT22;8239;48.594;8.598;2023-05-20T01:51:26;10.80;99.90
16263;DHT22;8239;48.594;8.598;2023-05-20T01:53:54;10.80;99.90
16263;DHT22;8239;48.594;8.598;2023-05-20T01:56:21;10.80;99.90
16263;DHT22;8239;48.594;8.598;2023-05-20T01:58:50;10.70;99.90
16263;DHT22;8239;48.594;8.598;2023-05-20T02:01:17;10.80;99.90
16263;DHT22;8239;48.594;8.598;2023-05-20T02:03:43;10.80;99.90
16263;DHT22;8239;48.594;8.598;2023-05-20T02:06:10;10.80;99.90
16263;DHT22;8239;48.594;8.598;2023-05-20T02:08:37;10.70;99.90
16263;DHT22;8239;48.594;8.598;2023-05-20T02:11:04;10.70;99.90
16263;DHT22;8239;48.594;8.598;2023-05-20T02:13:31;10.70;99.90
16263;DHT22;8239;48.594;8.598;2023-05-20T02:16:00;10.70;99.90
16263;DHT22;8239;48.594;8.598;2023-05-20T02:18:27;10.70;99.90
16263;DHT22;8239;48.594;8.598;2023-05-20T02:20:54;10.70;99.90
16263;DHT22;8239;48.594;8.598;2023-05-20T02:23:20;10.70;99.90
16263;DHT22;8239;48.594;8.598;2023-05-20T02:25:47;10.70;99.90
16263;DHT22;8239;48.594;8.598;2023-05-20T02:28:15;10.70;99.90
16263;DHT22;8239;48.594;8.598;2023-05-20T02:30:42;10.70;99.90
16263;DHT22;8239;48.594;8.598;2023-05-20T02:33:10;10.70;99.90
16263;DHT22;8239;48.594;8.598;2023-05-20T02:35:38;10.70;99.90
16263;DHT22;8239;48.594;8.598;2023-05-20T02:38:05;10.70;99.90
16263;DHT22;8239;48.594;8.598;2023-05-20T02:40:32;10.70;99.90
16263;DHT22;8239;48.594;8.598;2023-05-20T02:43:00;10.70;99.90
16263;DHT22;8239;48.594;8.598;2023-05-20T02:45:27;10.70;99.90
16263;DHT22;8239;48.594;8.598;2023-05-20T02:47:54;10.70;99.90
16263;DHT22;8239;48.594;8.598;2023-05-20T02:50:22;10.70;99.90
16263;DHT22;8239;48.594;8.598;2023-05-20T02:52:49;10.70;99.90
16263;DHT22;8239;48.594;8.598;2023-05-20T02:55:16;10.70;99.90
16263;DHT22;8239;48.594;8.598;2023-05-20T02:57:43;10.70;99.90
16263;DHT22;8239;48.594;8.598;2023-05-20T03:00:10;10.70;99.90
16263;DHT22;8239;48.594;8.598;2023-05-20T03:02:38;10.70;99.90
16263;DHT22;8239;48.594;8.598;2023-05-20T03:05:05;10.70;99.90
16263;DHT22;8239;48.594;8.598;2023-05-20T03:07:36;10.70;99.90
16263;DHT22;8239;48.594;8.598;2023-05-20T03:10:03;10.70;99.90
16263;DHT22;8239;48.594;8.598;2023-05-20T03:12:31;10.70;99.90
16263;DHT22;8239;48.594;8.598;2023-05-20T03:14:58;10.70;99.90
16263;DHT22;8239;48.594;8.598;2023-05-20T03:17:25;10.70;99.90
16263;DHT22;8239;48.594;8.598;2023-05-20T03:19:52;10.70;99.90
16263;DHT22;8239;48.594;8.598;2023-05-20T03:22:19;10.70;99.90
16263;DHT22;8239;48.594;8.598;2023-05-20T03:24:47;10.60;99.90
16263;DHT22;8239;48.594;8.598;2023-05-20T03:27:14;10.60;99.90
16263;DHT22;8239;48.594;8.598;2023-05-20T03:29:41;10.60;99.90
16263;DHT22;8239;48.594;8.598;2023-05-20T03:32:08;10.60;99.90
16263;DHT22;8239;48.594;8.598;2023-05-20T03:34:35;10.60;99.90
16263;DHT22;8239;48.594;8.598;2023-05-20T03:37:02;10.60;99.90
16263;DHT22;8239;48.594;8.598;2023-05-20T03:39:29;10.50;99.90
16263;DHT22;8239;48.594;8.598;2023-05-20T03:41:58;10.50;99.90
16263;DHT22;8239;48.594;8.598;2023-05-20T03:44:24;10.50;99.90
16263;DHT22;8239;48.594;8.598;2023-05-20T03:46:51;10.50;99.90
16263;DHT22;8239;48.594;8.598;2023-05-20T03:49:18;10.50;99.90
16263;DHT22;8239;48.594;8.598;2023-05-20T03:51:45;10.40;99.90
16263;DHT22;8239;48.594;8.598;2023-05-20T03:54:12;10.40;99.90
16263;DHT22;8239;48.594;8.598;2023-05-20T03:56:41;10.40;99.90
16263;DHT22;8239;48.594;8.598;2023-05-20T03:59:09;10.40;99.90
16263;DHT22;8239;48.594;8.598;2023-05-20T04:01:36;10.40;99.90
16263;DHT22;8239;48.594;8.598;2023-05-20T04:04:03;10.40;99.90
16263;DHT22;8239;48.594;8.598;2023-05-20T04:06:32;10.40;99.90
16263;DHT22;8239;48.594;8.598;2023-05-20T04:08:59;10.40;99.90
16263;DHT22;8239;48.594;8.598;2023-05-20T04:11:25;10.40;99.90
16263;DHT22;8239;48.594;8.598;2023-05-20T04:13:52;10.40;99.90
16263;DHT22;8239;48.594;8.598;2023-05-20T04:16:21;10.40;99.90
16263;DHT22;8239;48.594;8.598;2023-05-20T04:18:48;10.50;99.90
16263;DHT22;8239;48.594;8.598;2023-05-20T04:21:17;10.50;99.90
16263;DHT22;8239;48.594;8.598;2023-05-20T04:23:44;10.50;99.90
16263;DHT22;8239;48.594;8.598;2023-05-20T04:26:11;10.60;99.90
16263;DHT22;8239;48.594;8.598;2023-05-20T04:28:38;10.60;99.90
16263;DHT22;8239;48.594;8.598;2023-05-20T04:31:07;10.70;99.90
16263;DHT22;8239;48.594;8.598;2023-05-20T04:33:36;10.70;99.90
16263;DHT22;8239;48.594;8.598;2023-05-20T04:36:05;10.80;99.90
16263;DHT22;8239;48.594;8.598;2023-05-20T04:38:32;10.80;99.90
16263;DHT22;8239;48.594;8.598;2023-05-20T04:40:59;10.90;99.90
16263;DHT22;8239;48.594;8.598;2023-05-20T04:43:27;10.90;99.90
16263;DHT22;8239;48.594;8.598;2023-05-20T04:45:55;11.00;99.90
16263;DHT22;8239;48.594;8.598;2023-05-20T04:48:23;11.00;99.90
16263;DHT22;8239;48.594;8.598;2023-05-20T04:50:51;11.00;99.90
16263;DHT22;8239;48.594;8.598;2023-05-20T04:53:21;11.10;99.90
16263;DHT22;8239;48.594;8.598;2023-05-20T04:55:48;11.10;99.90
16263;DHT22;8239;48.594;8.598;2023-05-20T04:58:18;11.10;99.90
16263;DHT22;8239;48.594;8.598;2023-05-20T05:00:49;11.20;99.90
16263;DHT22;8239;48.594;8.598;2023-05-20T05:03:16;11.30;99.90
16263;DHT22;8239;48.594;8.598;2023-05-20T05:05:43;11.30;99.90
16263;DHT22;8239;48.594;8.598;2023-05-20T05:08:12;11.30;99.90
16263;DHT22;8239;48.594;8.598;2023-05-20T05:10:39;11.40;99.90
16263;DHT22;8239;48.594;8.598;2023-05-20T05:13:06;11.40;99.90
16263;DHT22;8239;48.594;8.598;2023-05-20T05:15:33;11.50;99.90
16263;DHT22;8239;48.594;8.598;2023-05-20T05:18:00;11.60;99.90
16263;DHT22;8239;48.594;8.598;2023-05-20T05:20:27;11.70;99.90
16263;DHT22;8239;48.594;8.598;2023-05-20T05:22:54;11.80;99.90
16263;DHT22;8239;48.594;8.598;2023-05-20T05:25:22;11.80;99.90
16263;DHT22;8239;48.594;8.598;2023-05-20T05:27:49;12.00;99.90
16263;DHT22;8239;48.594;8.598;2023-05-20T05:30:16;12.00;99.90
16263;DHT22;8239;48.594;8.598;2023-05-20T05:32:43;12.10;99.90
16263;DHT22;8239;48.594;8.598;2023-05-20T05:35:10;12.10;99.90
16263;DHT22;8239;48.594;8.598;2023-05-20T05:37:37;12.20;99.90
16263;DHT22;8239;48.594;8.598;2023-05-20T05:40:06;12.20;99.90
16263;DHT22;8239;48.594;8.598;2023-05-20T05:42:35;12.20;99.90
16263;DHT22;8239;48.594;8.598;2023-05-20T05:45:03;12.30;99.90
16263;DHT22;8239;48.594;8.598;2023-05-20T05:47:30;12.30;99.90
16263;DHT22;8239;48.594;8.598;2023-05-20T05:49:57;12.40;99.90
16263;DHT22;8239;48.594;8.598;2023-05-20T05:52:25;12.50;99.90
16263;DHT22;8239;48.594;8.598;2023-05-20T05:54:53;12.60;99.90
16263;DHT22;8239;48.594;8.598;2023-05-20T05:57:20;12.60;99.90
16263;DHT22;8239;48.594;8.598;2023-05-20T05:59:48;12.70;99.90
16263;DHT22;8239;48.594;8.598;2023-05-20T06:02:15;12.70;99.90
16263;DHT22;8239;48.594;8.598;2023-05-20T06:04:42;12.80;99.90
16263;DHT22;8239;48.594;8.598;2023-05-20T06:07:09;12.80;99.90
16263;DHT22;8239;48.594;8.598;2023-05-20T06:09:37;12.80;99.90
16263;DHT22;8239;48.594;8.598;2023-05-20T06:12:04;12.80;99.90
16263;DHT22;8239;48.594;8.598;2023-05-20T06:14:31;12.80;99.90
16263;DHT22;8239;48.594;8.598;2023-05-20T06:17:00;12.90;99.90
16263;DHT22;8239;48.594;8.598;2023-05-20T06:19:27;13.00;99.90
16263;DHT22;8239;48.594;8.598;2023-05-20T06:21:54;13.10;99.90
16263;DHT22;8239;48.594;8.598;2023-05-20T06:24:21;13.20;99.90
16263;DHT22;8239;48.594;8.598;2023-05-20T06:26:48;13.40;99.90
16263;DHT22;8239;48.594;8.598;2023-05-20T06:29:15;13.60;99.90
16263;DHT22;8239;48.594;8.598;2023-05-20T06:31:42;13.80;99.90
16263;DHT22;8239;48.594;8.598;2023-05-20T06:34:11;13.90;99.90
16263;DHT22;8239;48.594;8.598;2023-05-20T06:36:38;14.10;99.90
16263;DHT22;8239;48.594;8.598;2023-05-20T06:39:05;14.30;99.90
16263;DHT22;8239;48.594;8.598;2023-05-20T06:41:37;14.50;99.90
16263;DHT22;8239;48.594;8.598;2023-05-20T06:44:04;14.90;99.90
16263;DHT22;8239;48.594;8.598;2023-05-20T06:46:32;15.10;99.90
16263;DHT22;8239;48.594;8.598;2023-05-20T06:48:59;15.30;99.90
16263;DHT22;8239;48.594;8.598;2023-05-20T06:51:28;15.40;99.90
16263;DHT22;8239;48.594;8.598;2023-05-20T06:53:55;15.40;99.90
16263;DHT22;8239;48.594;8.598;2023-05-20T06:56:22;15.40;99.90
16263;DHT22;8239;48.594;8.598;2023-05-20T06:58:49;15.40;99.90
16263;DHT22;8239;48.594;8.598;2023-05-20T07:01:16;15.30;99.90
16263;DHT22;8239;48.594;8.598;2023-05-20T07:03:43;15.40;99.90
16263;DHT22;8239;48.594;8.598;2023-05-20T07:06:10;15.50;99.90
16263;DHT22;8239;48.594;8.598;2023-05-20T07:08:39;15.70;99.90
16263;DHT22;8239;48.594;8.598;2023-05-20T07:11:06;15.80;99.90
16263;DHT22;8239;48.594;8.598;2023-05-20T07:13:33;15.90;99.90
16263;DHT22;8239;48.594;8.598;2023-05-20T07:16:00;16.10;99.90
16263;DHT22;8239;48.594;8.598;2023-05-20T07:18:27;16.30;99.90
16263;DHT22;8239;48.594;8.598;2023-05-20T07:20:54;16.30;99.20
16263;DHT22;8239;48.594;8.598;2023-05-20T07:23:22;16.20;99.40
16263;DHT22;8239;48.594;8.598;2023-05-20T07:25:52;16.20;99.30
16263;DHT22;8239;48.594;8.598;2023-05-20T07:28:19;16.20;99.30
16263;DHT22;8239;48.594;8.598;2023-05-20T07:30:47;16.20;99.40
16263;DHT22;8239;48.594;8.598;2023-05-20T07:33:15;16.30;99.00
16263;DHT22;8239;48.594;8.598;2023-05-20T07:35:42;16.10;98.50
16263;DHT22;8239;48.594;8.598;2023-05-20T07:38:10;16.10;99.20
16263;DHT22;8239;48.594;8.598;2023-05-20T07:40:38;16.00;98.90
16263;DHT22;8239;48.594;8.598;2023-05-20T07:43:07;15.90;99.70
16263;DHT22;8239;48.594;8.598;2023-05-20T07:45:34;16.20;99.40
16263;DHT22;8239;48.594;8.598;2023-05-20T07:48:02;16.50;99.30
16263;DHT22;8239;48.594;8.598;2023-05-20T07:50:29;16.70;98.20
16263;DHT22;8239;48.594;8.598;2023-05-20T07:52:57;16.80;98.00
16263;DHT22;8239;48.594;8.598;2023-05-20T07:55:24;17.00;97.40
16263;DHT22;8239;48.594;8.598;2023-05-20T07:57:51;17.10;97.00
16263;DHT22;8239;48.594;8.598;2023-05-20T08:00:20;17.10;96.10
16263;DHT22;8239;48.594;8.598;2023-05-20T08:02:47;17.00;96.40
16263;DHT22;8239;48.594;8.598;2023-05-20T08:05:14;17.10;96.40
16263;DHT22;8239;48.594;8.598;2023-05-20T08:07:41;17.30;96.10
16263;DHT22;8239;48.594;8.598;2023-05-20T08:10:08;17.40;95.80
16263;DHT22;8239;48.594;8.598;2023-05-20T08:12:36;17.60;94.80
16263;DHT22;8239;48.594;8.598;2023-05-20T08:15:03;17.80;94.70
16263;DHT22;8239;48.594;8.598;2023-05-20T08:17:32;18.10;94.50
16263;DHT22;8239;48.594;8.598;2023-05-20T08:19:59;18.40;93.90
16263;DHT22;8239;48.594;8.598;2023-05-20T08:22:27;18.60;93.70
16263;DHT22;8239;48.594;8.598;2023-05-20T08:24:54;19.00;92.90
16263;DHT22;8239;48.594;8.598;2023-05-20T08:27:22;19.30;92.50
16263;DHT22;8239;48.594;8.598;2023-05-20T08:29:49;19.70;91.90
16263;DHT22;8239;48.594;8.598;2023-05-20T08:32:16;19.90;90.20
16263;DHT22;8239;48.594;8.598;2023-05-20T08:34:45;20.00;88.70
16263;DHT22;8239;48.594;8.598;2023-05-20T08:37:13;20.00;87.70
16263;DHT22;8239;48.594;8.598;2023-05-20T08:39:41;19.90;85.00
16263;DHT22;8239;48.594;8.598;2023-05-20T08:42:09;19.60;83.90
16263;DHT22;8239;48.594;8.598;2023-05-20T08:44:40;19.50;85.40
16263;DHT22;8239;48.594;8.598;2023-05-20T08:47:07;19.20;85.00
16263;DHT22;8239;48.594;8.598;2023-05-20T08:49:34;18.90;86.40
16263;DHT22;8239;48.594;8.598;2023-05-20T08:52:04;18.80;86.40
16263;DHT22;8239;48.594;8.598;2023-05-20T08:54:41;18.70;87.20
16263;DHT22;8239;48.594;8.598;2023-05-20T08:57:09;18.60;87.40
16263;DHT22;8239;48.594;8.598;2023-05-20T08:59:40;18.60;88.60
16263;DHT22;8239;48.594;8.598;2023-05-20T09:02:09;18.80;88.70
16263;DHT22;8239;48.594;8.598;2023-05-20T09:04:36;18.90;88.70
16263;DHT22;8239;48.594;8.598;2023-05-20T09:07:05;19.10;88.70
16263;DHT22;8239;48.594;8.598;2023-05-20T09:09:33;19.40;87.70
16263;DHT22;8239;48.594;8.598;2023-05-20T09:12:01;19.80;88.20
16263;DHT22;8239;48.594;8.598;2023-05-20T09:14:28;20.30;87.70
16263;DHT22;8239;48.594;8.598;2023-05-20T09:16:56;20.80;85.50
16263;DHT22;8239;48.594;8.598;2023-05-20T09:19:23;21.10;81.90
16263;DHT22;8239;48.594;8.598;2023-05-20T09:21:52;21.20;79.20
16263;DHT22;8239;48.594;8.598;2023-05-20T09:24:24;21.30;76.60
16263;DHT22;8239;48.594;8.598;2023-05-20T09:26:52;21.10;76.20
16263;DHT22;8239;48.594;8.598;2023-05-20T09:29:19;20.70;77.10
16263;DHT22;8239;48.594;8.598;2023-05-20T09:31:46;20.80;77.30
16263;DHT22;8239;48.594;8.598;2023-05-20T09:34:14;20.70;77.10
16263;DHT22;8239;48.594;8.598;2023-05-20T09:36:43;20.90;76.70
16263;DHT22;8239;48.594;8.598;2023-05-20T09:39:13;20.90;75.30
16263;DHT22;8239;48.594;8.598;2023-05-20T09:41:48;20.90;75.50
16263;DHT22;8239;48.594;8.598;2023-05-20T09:44:20;20.80;76.70
16263;DHT22;8239;48.594;8.598;2023-05-20T09:46:48;20.70;76.10
16263;DHT22;8239;48.594;8.598;2023-05-20T09:49:18;20.90;76.40
16263;DHT22;8239;48.594;8.598;2023-05-20T09:51:47;21.00;74.10
16263;DHT22;8239;48.594;8.598;2023-05-20T09:54:17;21.10;75.00
16263;DHT22;8239;48.594;8.598;2023-05-20T09:56:47;21.60;75.70
16263;DHT22;8239;48.594;8.598;2023-05-20T09:59:14;22.20;74.70
16263;DHT22;8239;48.594;8.598;2023-05-20T10:01:43;22.80;71.90
16263;DHT22;8239;48.594;8.598;2023-05-20T10:04:11;23.40;71.70
16263;DHT22;8239;48.594;8.598;2023-05-20T10:06:57;23.80;69.20
16263;DHT22;8239;48.594;8.598;2023-05-20T10:09:44;23.80;65.80
16263;DHT22;8239;48.594;8.598;2023-05-20T10:12:26;24.00;65.50
16263;DHT22;8239;48.594;8.598;2023-05-20T10:14:59;24.10;65.30
16263;DHT22;8239;48.594;8.598;2023-05-20T10:17:36;24.30;64.30
16263;DHT22;8239;48.594;8.598;2023-05-20T10:20:06;24.10;62.30
16263;DHT22;8239;48.594;8.598;2023-05-20T10:22:36;23.40;63.50
16263;DHT22;8239;48.594;8.598;2023-05-20T10:25:06;23.20;63.80
16263;DHT22;8239;48.594;8.598;2023-05-20T10:27:43;23.00;65.10
16263;DHT22;8239;48.594;8.598;2023-05-20T10:30:17;23.20;66.50
16263;DHT22;8239;48.594;8.598;2023-05-20T10:32:51;23.10;64.10
16263;DHT22;8239;48.594;8.598;2023-05-20T10:35:22;23.50;63.60
16263;DHT22;8239;48.594;8.598;2023-05-20T10:37:52;23.50;63.60
16263;DHT22;8239;48.594;8.598;2023-05-20T10:40:21;23.60;63.40
16263;DHT22;8239;48.594;8.598;2023-05-20T10:42:50;23.90;63.30
16263;DHT22;8239;48.594;8.598;2023-05-20T10:45:27;24.00;62.70
16263;DHT22;8239;48.594;8.598;2023-05-20T10:47:55;24.10;61.60
16263;DHT22;8239;48.594;8.598;2023-05-20T10:50:26;24.00;61.70
16263;DHT22;8239;48.594;8.598;2023-05-20T10:52:54;24.50;61.90
16263;DHT22;8239;48.594;8.598;2023-05-20T10:55:21;24.40;58.20
16263;DHT22;8239;48.594;8.598;2023-05-20T10:57:50;23.80;58.50
16263;DHT22;8239;48.594;8.598;2023-05-20T11:00:17;23.50;61.10
16263;DHT22;8239;48.594;8.598;2023-05-20T11:02:46;23.30;62.40
16263;DHT22;8239;48.594;8.598;2023-05-20T11:05:16;23.00;63.00
16263;DHT22;8239;48.594;8.598;2023-05-20T11:07:43;23.20;64.30
16263;DHT22;8239;48.594;8.598;2023-05-20T11:10:10;23.60;64.00
16263;DHT22;8239;48.594;8.598;2023-05-20T11:12:37;23.60;63.50
16263;DHT22;8239;48.594;8.598;2023-05-20T11:15:07;23.50;63.60
16263;DHT22;8239;48.594;8.598;2023-05-20T11:17:36;23.70;64.20
16263;DHT22;8239;48.594;8.598;2023-05-20T11:20:04;24.20;62.90
16263;DHT22;8239;48.594;8.598;2023-05-20T11:22:32;24.50;61.60
16263;DHT22;8239;48.594;8.598;2023-05-20T11:24:59;24.80;60.60
16263;DHT22;8239;48.594;8.598;2023-05-20T11:27:30;24.70;59.70
16263;DHT22;8239;48.594;8.598;2023-05-20T11:29:57;24.70;59.60
16263;DHT22;8239;48.594;8.598;2023-05-20T11:32:26;24.70;59.70
16263;DHT22;8239;48.594;8.598;2023-05-20T11:34:53;24.60;58.70
16263;DHT22;8239;48.594;8.598;2023-05-20T11:37:20;24.50;58.70
16263;DHT22;8239;48.594;8.598;2023-05-20T11:39:47;24.70;59.70
16263;DHT22;8239;48.594;8.598;2023-05-20T11:42:14;24.60;58.90
16263;DHT22;8239;48.594;8.598;2023-05-20T11:44:42;24.50;58.50
16263;DHT22;8239;48.594;8.598;2023-05-20T11:47:11;24.50;59.60
16263;DHT22;8239;48.594;8.598;2023-05-20T11:49:42;24.50;58.80
16263;DHT22;8239;48.594;8.598;2023-05-20T11:52:09;24.40;58.60
16263;DHT22;8239;48.594;8.598;2023-05-20T11:54:38;24.30;59.40
16263;DHT22;8239;48.594;8.598;2023-05-20T11:57:08;24.30;59.60
16263;DHT22;8239;48.594;8.598;2023-05-20T11:59:36;24.20;59.90
16263;DHT22;8239;48.594;8.598;2023-05-20T12:02:04;24.10;59.30
16263;DHT22;8239;48.594;8.598;2023-05-20T12:04:31;24.00;59.40
16263;DHT22;8239;48.594;8.598;2023-05-20T12:07:00;23.80;59.70
16263;DHT22;8239;48.594;8.598;2023-05-20T12:09:28;23.70;60.70
16263;DHT22;8239;48.594;8.598;2023-05-20T12:11:55;23.30;60.70
16263;DHT22;8239;48.594;8.598;2023-05-20T12:14:23;23.40;61.20
16263;DHT22;8239;48.594;8.598;2023-05-20T12:16:51;23.70;60.50
16263;DHT22;8239;48.594;8.598;2023-05-20T12:19:18;24.20;60.80
16263;DHT22;8239;48.594;8.598;2023-05-20T12:21:45;24.60;59.20
16263;DHT22;8239;48.594;8.598;2023-05-20T12:24:14;25.00;58.50
16263;DHT22;8239;48.594;8.598;2023-05-20T12:26:41;25.40;57.40
16263;DHT22;8239;48.594;8.598;2023-05-20T12:29:09;25.90;57.80
16263;DHT22;8239;48.594;8.598;2023-05-20T12:31:36;26.60;55.50
16263;DHT22;8239;48.594;8.598;2023-05-20T12:34:04;27.00;55.30
16263;DHT22;8239;48.594;8.598;2023-05-20T12:36:31;27.10;53.80
16263;DHT22;8239;48.594;8.598;2023-05-20T12:38:59;27.30;54.40
16263;DHT22;8239;48.594;8.598;2023-05-20T12:41:28;27.40;53.40
16263;DHT22;8239;48.594;8.598;2023-05-20T12:43:55;27.20;53.20
16263;DHT22;8239;48.594;8.598;2023-05-20T12:46:22;27.00;52.90
16263;DHT22;8239;48.594;8.598;2023-05-20T12:48:50;26.20;52.70
16263;DHT22;8239;48.594;8.598;2023-05-20T12:51:17;25.60;53.90
16263;DHT22;8239;48.594;8.598;2023-05-20T12:53:45;25.60;55.20
16263;DHT22;8239;48.594;8.598;2023-05-20T12:56:12;25.50;54.30
16263;DHT22;8239;48.594;8.598;2023-05-20T12:58:41;25.90;55.70
16263;DHT22;8239;48.594;8.598;2023-05-20T13:01:08;26.40;55.00
16263;DHT22;8239;48.594;8.598;2023-05-20T13:03:35;27.00;54.20
16263;DHT22;8239;48.594;8.598;2023-05-20T13:06:03;27.40;53.10
16263;DHT22;8239;48.594;8.598;2023-05-20T13:08:31;27.70;52.60
16263;DHT22;8239;48.594;8.598;2023-05-20T13:10:58;27.70;51.60
16263;DHT22;8239;48.594;8.598;2023-05-20T13:13:25;27.80;51.50
16263;DHT22;8239;48.594;8.598;2023-05-20T13:15:53;28.00;50.90
16263;DHT22;8239;48.594;8.598;2023-05-20T13:18:21;28.10;50.60
16263;DHT22;8239;48.594;8.598;2023-05-20T13:20:48;28.20;51.90
16263;DHT22;8239;48.594;8.598;2023-05-20T13:23:15;28.00;49.70
16263;DHT22;8239;48.594;8.598;2023-05-20T13:25:42;27.90;50.30
16263;DHT22;8239;48.594;8.598;2023-05-20T13:28:10;28.10;50.50
16263;DHT22;8239;48.594;8.598;2023-05-20T13:30:41;28.50;51.30
16263;DHT22;8239;48.594;8.598;2023-05-20T13:33:09;28.60;50.90
16263;DHT22;8239;48.594;8.598;2023-05-20T13:35:37;28.60;51.10
16263;DHT22;8239;48.594;8.598;2023-05-20T13:38:04;28.90;51.30
16263;DHT22;8239;48.594;8.598;2023-05-20T13:40:31;29.40;51.30
16263;DHT22;8239;48.594;8.598;2023-05-20T13:42:59;29.80;49.70
16263;DHT22;8239;48.594;8.598;2023-05-20T13:45:27;30.10;48.90
16263;DHT22;8239;48.594;8.598;2023-05-20T13:47:54;30.20;47.40
16263;DHT22;8239;48.594;8.598;2023-05-20T13:50:25;29.60;47.40
16263;DHT22;8239;48.594;8.598;2023-05-20T13:52:54;28.90;46.50
16263;DHT22;8239;48.594;8.598;2023-05-20T13:55:21;28.10;47.50
16263;DHT22;8239;48.594;8.598;2023-05-20T13:57:50;27.70;49.10
16263;DHT22;8239;48.594;8.598;2023-05-20T14:00:19;27.30;50.20
16263;DHT22;8239;48.594;8.598;2023-05-20T14:02:47;26.60;51.00
16263;DHT22;8239;48.594;8.598;2023-05-20T14:05:15;26.40;51.90
16263;DHT22;8239;48.594;8.598;2023-05-20T14:07:44;26.40;52.80
16263;DHT22;8239;48.594;8.598;2023-05-20T14:10:12;26.30;52.00
16263;DHT22;8239;48.594;8.598;2023-05-20T14:12:41;26.30;52.40
16263;DHT22;8239;48.594;8.598;2023-05-20T14:15:12;26.00;53.20
16263;DHT22;8239;48.594;8.598;2023-05-20T14:17:39;25.60;53.90
16263;DHT22;8239;48.594;8.598;2023-05-20T14:20:08;25.40;54.70
16263;DHT22;8239;48.594;8.598;2023-05-20T14:22:35;25.20;55.10
16263;DHT22;8239;48.594;8.598;2023-05-20T14:25:05;25.20;55.20
16263;DHT22;8239;48.594;8.598;2023-05-20T14:27:34;25.20;55.50
16263;DHT22;8239;48.594;8.598;2023-05-20T14:30:04;25.00;55.30
16263;DHT22;8239;48.594;8.598;2023-05-20T14:32:33;24.90;55.90
16263;DHT22;8239;48.594;8.598;2023-05-20T14:35:03;24.80;56.30
16263;DHT22;8239;48.594;8.598;2023-05-20T14:37:31;24.60;56.50
16263;DHT22;8239;48.594;8.598;2023-05-20T14:39:58;24.60;56.80
16263;DHT22;8239;48.594;8.598;2023-05-20T14:42:28;24.60;56.90
16263;DHT22;8239;48.594;8.598;2023-05-20T14:44:55;24.50;56.40
16263;DHT22;8239;48.594;8.598;2023-05-20T14:47:23;24.50;56.20
16263;DHT22;8239;48.594;8.598;2023-05-20T14:49:52;24.30;56.60
16263;DHT22;8239;48.594;8.598;2023-05-20T14:52:21;24.30;57.10
16263;DHT22;8239;48.594;8.598;2023-05-20T14:54:50;24.50;57.10
16263;DHT22;8239;48.594;8.598;2023-05-20T14:57:18;24.60;57.50
16263;DHT22;8239;48.594;8.598;2023-05-20T14:59:46;24.80;57.60
16263;DHT22;8239;48.594;8.598;2023-05-20T15:02:16;25.00;56.00
16263;DHT22;8239;48.594;8.598;2023-05-20T15:04:46;25.10;56.40
16263;DHT22;8239;48.594;8.598;2023-05-20T15:07:16;25.00;56.10
16263;DHT22;8239;48.594;8.598;2023-05-20T15:09:44;24.70;56.10
16263;DHT22;8239;48.594;8.598;2023-05-20T15:12:11;24.30;56.70
16263;DHT22;8239;48.594;8.598;2023-05-20T15:14:38;23.90;57.30
16263;DHT22;8239;48.594;8.598;2023-05-20T15:17:07;23.60;57.90
16263;DHT22;8239;48.594;8.598;2023-05-20T15:19:34;23.30;58.40
16263;DHT22;8239;48.594;8.598;2023-05-20T15:22:01;22.90;59.10
16263;DHT22;8239;48.594;8.598;2023-05-20T15:24:29;22.60;59.90
16263;DHT22;8239;48.594;8.598;2023-05-20T15:26:56;22.60;61.00
16263;DHT22;8239;48.594;8.598;2023-05-20T15:29:25;22.50;61.10
16263;DHT22;8239;48.594;8.598;2023-05-20T15:31:52;22.50;61.50
16263;DHT22;8239;48.594;8.598;2023-05-20T15:34:21;22.60;62.00
16263;DHT22;8239;48.594;8.598;2023-05-20T15:36:48;22.60;62.10
16263;DHT22;8239;48.594;8.598;2023-05-20T15:39:15;22.70;62.70
16263;DHT22;8239;48.594;8.598;2023-05-20T15:41:42;22.60;61.80
16263;DHT22;8239;48.594;8.598;2023-05-20T15:44:09;22.60;61.20
16263;DHT22;8239;48.594;8.598;2023-05-20T15:46:36;22.70;61.70
16263;DHT22;8239;48.594;8.598;2023-05-20T15:49:03;22.80;61.80
16263;DHT22;8239;48.594;8.598;2023-05-20T15:51:31;22.90;62.10